sensor_id;sensor_type;location;lat;lon;timestamp;P1;durP1;ratioP1;P2;durP2;ratioP2
15938;SDS011;8068;51.322;9.450;2023-09-12T00:00:45;19.67;;;8.50;;
15938;SDS011;8068;51.322;9.450;2023-09-12T00:03:12;14.67;;;7.80;;
15938;SDS011;8068;51.322;9.450;2023-09-12T00:05:39;13.97;;;7.07;;
15938;SDS011;8068;51.322;9.450;2023-09-12T00:08:06;16.83;;;7.83;;
15938;SDS011;8068;51.322;9.450;2023-09-12T00:10:33;20.67;;;8.57;;
15938;SDS011;8068;51.322;9.450;2023-09-12T00:13:00;13.50;;;8.23;;
15938;SDS011;8068;51.322;9.450;2023-09-12T00:15:28;19.03;;;9.03;;
15938;SDS011;8068;51.322;9.450;2023-09-12T00:17:56;16.80;;;8.10;;
15938;SDS011;8068;51.322;9.450;2023-09-12T00:20:23;14.13;;;7.53;;
15938;SDS011;8068;51.322;9.450;2023-09-12T00:22:50;19.70;;;8.30;;
15938;SDS011;8068;51.322;9.450;2023-09-12T00:25:19;21.23;;;8.27;;
15938;SDS011;8068;51.322;9.450;2023-09-12T00:27:47;19.63;;;9.00;;
15938;SDS011;8068;51.322;9.450;2023-09-12T00:30:14;19.13;;;7.87;;
15938;SDS011;8068;51.322;9.450;2023-09-12T00:32:41;13.80;;;8.43;;
15938;SDS011;8068;51.322;9.450;2023-09-12T00:35:08;17.80;;;8.40;;
15938;SDS011;8068;51.322;9.450;2023-09-12T00:37:35;22.87;;;8.50;;
15938;SDS011;8068;51.322;9.450;2023-09-12T00:40:02;20.60;;;8.20;;
15938;SDS011;8068;51.322;9.450;2023-09-12T00:42:29;24.23;;;7.90;;
15938;SDS011;8068;51.322;9.450;2023-09-12T00:44:56;19.43;;;8.20;;
15938;SDS011;8068;51.322;9.450;2023-09-12T00:47:23;17.60;;;8.10;;
15938;SDS011;8068;51.322;9.450;2023-09-12T00:49:50;19.73;;;7.97;;
15938;SDS011;8068;51.322;9.450;2023-09-12T00:52:23;21.53;;;8.53;;
15938;SDS011;8068;51.322;9.450;2023-09-12T00:54:51;22.83;;;9.00;;
15938;SDS011;8068;51.322;9.450;2023-09-12T00:57:19;17.30;;;8.40;;
15938;SDS011;8068;51.322;9.450;2023-09-12T00:59:49;13.83;;;8.90;;
15938;SDS011;8068;51.322;9.450;2023-09-12T01:02:18;16.70;;;8.70;;
15938;SDS011;8068;51.322;9.450;2023-09-12T01:04:46;17.97;;;8.57;;
15938;SDS011;8068;51.322;9.450;2023-09-12T01:07:13;12.73;;;8.13;;
15938;SDS011;8068;51.322;9.450;2023-09-12T01:12:21;16.80;;;8.57;;
15938;SDS011;8068;51.322;9.450;2023-09-12T01:14:48;18.73;;;8.80;;
15938;SDS011;8068;51.322;9.450;2023-09-12T01:17:15;15.20;;;8.50;;
15938;SDS011;8068;51.322;9.450;2023-09-12T01:19:42;21.53;;;8.43;;
15938;SDS011;8068;51.322;9.450;2023-09-12T01:27:41;12.27;;;8.60;;
15938;SDS011;8068;51.322;9.450;2023-09-12T01:30:09;19.23;;;8.93;;
15938;SDS011;8068;51.322;9.450;2023-09-12T01:32:37;21.70;;;9.00;;
15938;SDS011;8068;51.322;9.450;2023-09-12T01:35:04;16.90;;;8.90;;
15938;SDS011;8068;51.322;9.450;2023-09-12T01:37:31;15.33;;;8.63;;
15938;SDS011;8068;51.322;9.450;2023-09-12T01:39:58;22.23;;;9.37;;
15938;SDS011;8068;51.322;9.450;2023-09-12T01:42:27;21.00;;;9.03;;
15938;SDS011;8068;51.322;9.450;2023-09-12T01:44:57;27.20;;;9.17;;
15938;SDS011;8068;51.322;9.450;2023-09-12T01:47:25;14.20;;;8.67;;
15938;SDS011;8068;51.322;9.450;2023-09-12T01:49:53;19.50;;;9.47;;
15938;SDS011;8068;51.322;9.450;2023-09-12T01:52:22;12.73;;;8.70;;
15938;SDS011;8068;51.322;9.450;2023-09-12T01:54:50;20.53;;;9.00;;
15938;SDS011;8068;51.322;9.450;2023-09-12T01:57:17;13.30;;;8.20;;
15938;SDS011;8068;51.322;9.450;2023-09-12T01:59:47;13.80;;;9.47;;
15938;SDS011;8068;51.322;9.450;2023-09-12T02:02:15;20.33;;;8.87;;
15938;SDS011;8068;51.322;9.450;2023-09-12T02:07:28;15.57;;;9.70;;
15938;SDS011;8068;51.322;9.450;2023-09-12T02:09:56;27.70;;;10.47;;
15938;SDS011;8068;51.322;9.450;2023-09-12T02:12:23;21.60;;;9.40;;
15938;SDS011;8068;51.322;9.450;2023-09-12T02:14:50;13.03;;;8.93;;
15938;SDS011;8068;51.322;9.450;2023-09-12T02:17:17;17.07;;;9.10;;
15938;SDS011;8068;51.322;9.450;2023-09-12T02:19:46;14.50;;;9.67;;
15938;SDS011;8068;51.322;9.450;2023-09-12T02:22:14;13.37;;;8.80;;
15938;SDS011;8068;51.322;9.450;2023-09-12T02:24:41;14.43;;;8.40;;
15938;SDS011;8068;51.322;9.450;2023-09-12T02:27:08;16.83;;;10.17;;
15938;SDS011;8068;51.322;9.450;2023-09-12T02:29:35;15.23;;;9.33;;
15938;SDS011;8068;51.322;9.450;2023-09-12T02:32:01;14.30;;;8.90;;
15938;SDS011;8068;51.322;9.450;2023-09-12T02:34:29;13.50;;;8.70;;
15938;SDS011;8068;51.322;9.450;2023-09-12T02:36:56;19.33;;;8.40;;
15938;SDS011;8068;51.322;9.450;2023-09-12T02:39:23;13.10;;;8.20;;
15938;SDS011;8068;51.322;9.450;2023-09-12T02:41:50;16.60;;;9.07;;
15938;SDS011;8068;51.322;9.450;2023-09-12T02:44:16;16.30;;;10.17;;
15938;SDS011;8068;51.322;9.450;2023-09-12T02:46:43;15.83;;;9.50;;
15938;SDS011;8068;51.322;9.450;2023-09-12T02:49:11;16.57;;;9.30;;
15938;SDS011;8068;51.322;9.450;2023-09-12T02:51:38;19.10;;;8.80;;
15938;SDS011;8068;51.322;9.450;2023-09-12T02:54:05;15.73;;;9.43;;
15938;SDS011;8068;51.322;9.450;2023-09-12T02:56:32;16.23;;;8.87;;
15938;SDS011;8068;51.322;9.450;2023-09-12T02:58:59;18.63;;;9.37;;
15938;SDS011;8068;51.322;9.450;2023-09-12T03:01:26;22.63;;;9.83;;
15938;SDS011;8068;51.322;9.450;2023-09-12T03:03:54;14.57;;;8.60;;
15938;SDS011;8068;51.322;9.450;2023-09-12T03:06:22;14.20;;;9.47;;
15938;SDS011;8068;51.322;9.450;2023-09-12T03:08:49;15.73;;;9.27;;
15938;SDS011;8068;51.322;9.450;2023-09-12T03:11:17;18.63;;;9.60;;
15938;SDS011;8068;51.322;9.450;2023-09-12T03:13:44;25.20;;;9.33;;
15938;SDS011;8068;51.322;9.450;2023-09-12T03:16:11;21.40;;;8.93;;
15938;SDS011;8068;51.322;9.450;2023-09-12T03:18:38;21.60;;;9.20;;
15938;SDS011;8068;51.322;9.450;2023-09-12T03:21:06;14.77;;;8.70;;
15938;SDS011;8068;51.322;9.450;2023-09-12T03:23:33;14.03;;;9.50;;
15938;SDS011;8068;51.322;9.450;2023-09-12T03:26:02;18.43;;;8.43;;
15938;SDS011;8068;51.322;9.450;2023-09-12T03:28:32;15.20;;;9.27;;
15938;SDS011;8068;51.322;9.450;2023-09-12T03:31:09;17.00;;;8.70;;
15938;SDS011;8068;51.322;9.450;2023-09-12T03:33:41;20.43;;;8.30;;
15938;SDS011;8068;51.322;9.450;2023-09-12T03:36:08;15.30;;;8.37;;
15938;SDS011;8068;51.322;9.450;2023-09-12T03:38:36;14.07;;;8.60;;
15938;SDS011;8068;51.322;9.450;2023-09-12T03:41:03;21.10;;;9.30;;
15938;SDS011;8068;51.322;9.450;2023-09-12T03:43:30;16.03;;;8.43;;
15938;SDS011;8068;51.322;9.450;2023-09-12T03:45:57;13.87;;;9.60;;
15938;SDS011;8068;51.322;9.450;2023-09-12T03:48:24;13.43;;;9.23;;
15938;SDS011;8068;51.322;9.450;2023-09-12T03:50:51;14.13;;;9.23;;
15938;SDS011;8068;51.322;9.450;2023-09-12T03:53:18;18.70;;;10.67;;
15938;SDS011;8068;51.322;9.450;2023-09-12T03:55:45;15.40;;;8.47;;
15938;SDS011;8068;51.322;9.450;2023-09-12T03:58:12;13.20;;;8.60;;
15938;SDS011;8068;51.322;9.450;2023-09-12T04:00:39;14.07;;;8.53;;
15938;SDS011;8068;51.322;9.450;2023-09-12T04:03:06;22.60;;;9.63;;
15938;SDS011;8068;51.322;9.450;2023-09-12T04:05:33;17.27;;;9.23;;
15938;SDS011;8068;51.322;9.450;2023-09-12T04:07:59;17.00;;;9.40;;
15938;SDS011;8068;51.322;9.450;2023-09-12T04:10:26;19.10;;;9.50;;
15938;SDS011;8068;51.322;9.450;2023-09-12T04:12:53;16.97;;;9.63;;
15938;SDS011;8068;51.322;9.450;2023-09-12T04:15:20;23.57;;;10.07;;
15938;SDS011;8068;51.322;9.450;2023-09-12T04:17:47;21.43;;;9.87;;
15938;SDS011;8068;51.322;9.450;2023-09-12T04:20:14;11.97;;;8.80;;
15938;SDS011;8068;51.322;9.450;2023-09-12T04:22:42;18.20;;;9.53;;
15938;SDS011;8068;51.322;9.450;2023-09-12T04:25:09;16.53;;;8.77;;
15938;SDS011;8068;51.322;9.450;2023-09-12T04:27:36;18.83;;;9.27;;
15938;SDS011;8068;51.322;9.450;2023-09-12T04:30:03;20.53;;;9.60;;
15938;SDS011;8068;51.322;9.450;2023-09-12T04:32:30;16.40;;;9.00;;
15938;SDS011;8068;51.322;9.450;2023-09-12T04:34:57;15.90;;;10.00;;
15938;SDS011;8068;51.322;9.450;2023-09-12T04:37:24;11.10;;;8.83;;
15938;SDS011;8068;51.322;9.450;2023-09-12T04:39:51;16.67;;;9.87;;
15938;SDS011;8068;51.322;9.450;2023-09-12T04:42:18;17.20;;;11.57;;
15938;SDS011;8068;51.322;9.450;2023-09-12T04:44:45;18.90;;;9.30;;
15938;SDS011;8068;51.322;9.450;2023-09-12T04:47:12;16.60;;;9.27;;
15938;SDS011;8068;51.322;9.450;2023-09-12T04:49:39;19.40;;;10.20;;
15938;SDS011;8068;51.322;9.450;2023-09-12T04:52:06;17.07;;;9.63;;
15938;SDS011;8068;51.322;9.450;2023-09-12T04:54:33;24.83;;;8.93;;
15938;SDS011;8068;51.322;9.450;2023-09-12T04:57:00;17.10;;;9.70;;
15938;SDS011;8068;51.322;9.450;2023-09-12T04:59:27;19.97;;;10.83;;
15938;SDS011;8068;51.322;9.450;2023-09-12T05:01:53;22.70;;;10.40;;
15938;SDS011;8068;51.322;9.450;2023-09-12T05:04:20;20.33;;;11.63;;
15938;SDS011;8068;51.322;9.450;2023-09-12T05:06:47;27.43;;;10.43;;
15938;SDS011;8068;51.322;9.450;2023-09-12T05:09:15;17.60;;;11.20;;
15938;SDS011;8068;51.322;9.450;2023-09-12T05:11:42;28.03;;;11.07;;
15938;SDS011;8068;51.322;9.450;2023-09-12T05:14:10;26.20;;;11.20;;
15938;SDS011;8068;51.322;9.450;2023-09-12T05:16:37;24.60;;;11.40;;
15938;SDS011;8068;51.322;9.450;2023-09-12T05:19:04;25.93;;;11.20;;
15938;SDS011;8068;51.322;9.450;2023-09-12T05:21:31;29.27;;;11.73;;
15938;SDS011;8068;51.322;9.450;2023-09-12T05:23:58;28.47;;;12.43;;
15938;SDS011;8068;51.322;9.450;2023-09-12T05:26:25;29.93;;;12.00;;
15938;SDS011;8068;51.322;9.450;2023-09-12T05:28:52;21.83;;;11.53;;
15938;SDS011;8068;51.322;9.450;2023-09-12T05:31:19;39.83;;;12.70;;
15938;SDS011;8068;51.322;9.450;2023-09-12T05:33:46;40.93;;;11.73;;
15938;SDS011;8068;51.322;9.450;2023-09-12T05:36:13;29.03;;;11.90;;
15938;SDS011;8068;51.322;9.450;2023-09-12T05:38:40;37.60;;;11.87;;
15938;SDS011;8068;51.322;9.450;2023-09-12T05:41:07;25.77;;;11.57;;
15938;SDS011;8068;51.322;9.450;2023-09-12T05:43:34;36.90;;;12.33;;
15938;SDS011;8068;51.322;9.450;2023-09-12T05:46:01;26.43;;;13.07;;
15938;SDS011;8068;51.322;9.450;2023-09-12T05:48:28;23.03;;;11.23;;
15938;SDS011;8068;51.322;9.450;2023-09-12T05:50:55;19.20;;;11.20;;
15938;SDS011;8068;51.322;9.450;2023-09-12T05:53:22;21.20;;;11.97;;
15938;SDS011;8068;51.322;9.450;2023-09-12T05:55:49;22.40;;;11.47;;
15938;SDS011;8068;51.322;9.450;2023-09-12T05:58:16;18.83;;;12.57;;
15938;SDS011;8068;51.322;9.450;2023-09-12T06:00:43;25.07;;;12.50;;
15938;SDS011;8068;51.322;9.450;2023-09-12T06:03:10;20.97;;;13.70;;
15938;SDS011;8068;51.322;9.450;2023-09-12T06:05:39;28.53;;;15.50;;
15938;SDS011;8068;51.322;9.450;2023-09-12T06:08:05;21.53;;;15.83;;
15938;SDS011;8068;51.322;9.450;2023-09-12T06:10:32;26.73;;;15.87;;
15938;SDS011;8068;51.322;9.450;2023-09-12T06:13:00;25.90;;;17.33;;
15938;SDS011;8068;51.322;9.450;2023-09-12T06:15:27;29.77;;;15.73;;
15938;SDS011;8068;51.322;9.450;2023-09-12T06:17:54;22.07;;;13.90;;
15938;SDS011;8068;51.322;9.450;2023-09-12T06:20:21;20.63;;;16.80;;
15938;SDS011;8068;51.322;9.450;2023-09-12T06:22:48;31.60;;;18.50;;
15938;SDS011;8068;51.322;9.450;2023-09-12T06:25:15;26.47;;;17.37;;
15938;SDS011;8068;51.322;9.450;2023-09-12T06:27:42;26.37;;;15.80;;
15938;SDS011;8068;51.322;9.450;2023-09-12T06:30:09;27.40;;;17.10;;
15938;SDS011;8068;51.322;9.450;2023-09-12T06:32:37;21.20;;;16.47;;
15938;SDS011;8068;51.322;9.450;2023-09-12T06:35:05;18.33;;;13.57;;
15938;SDS011;8068;51.322;9.450;2023-09-12T06:37:32;26.10;;;15.67;;
15938;SDS011;8068;51.322;9.450;2023-09-12T06:39:59;30.00;;;16.07;;
15938;SDS011;8068;51.322;9.450;2023-09-12T06:42:26;23.33;;;16.10;;
15938;SDS011;8068;51.322;9.450;2023-09-12T06:44:53;19.77;;;16.90;;
15938;SDS011;8068;51.322;9.450;2023-09-12T06:47:20;28.30;;;17.03;;
15938;SDS011;8068;51.322;9.450;2023-09-12T06:49:46;18.57;;;16.50;;
15938;SDS011;8068;51.322;9.450;2023-09-12T06:52:20;19.60;;;15.23;;
15938;SDS011;8068;51.322;9.450;2023-09-12T06:54:47;28.87;;;16.83;;
15938;SDS011;8068;51.322;9.450;2023-09-12T06:57:14;27.50;;;17.00;;
15938;SDS011;8068;51.322;9.450;2023-09-12T06:59:41;26.67;;;16.70;;
15938;SDS011;8068;51.322;9.450;2023-09-12T07:02:08;28.50;;;17.70;;
15938;SDS011;8068;51.322;9.450;2023-09-12T07:04:36;49.23;;;18.73;;
15938;SDS011;8068;51.322;9.450;2023-09-12T07:07:03;23.27;;;15.50;;
15938;SDS011;8068;51.322;9.450;2023-09-12T07:09:31;28.80;;;17.57;;
15938;SDS011;8068;51.322;9.450;2023-09-12T07:11:58;33.07;;;18.33;;
15938;SDS011;8068;51.322;9.450;2023-09-12T07:14:24;26.50;;;18.53;;
15938;SDS011;8068;51.322;9.450;2023-09-12T07:16:52;25.90;;;17.50;;
15938;SDS011;8068;51.322;9.450;2023-09-12T07:19:19;30.90;;;15.70;;
15938;SDS011;8068;51.322;9.450;2023-09-12T07:21:46;19.10;;;16.73;;
15938;SDS011;8068;51.322;9.450;2023-09-12T07:24:13;20.57;;;14.30;;
15938;SDS011;8068;51.322;9.450;2023-09-12T07:26:40;24.97;;;14.80;;
15938;SDS011;8068;51.322;9.450;2023-09-12T07:29:07;29.77;;;16.50;;
15938;SDS011;8068;51.322;9.450;2023-09-12T07:31:33;26.87;;;16.60;;
15938;SDS011;8068;51.322;9.450;2023-09-12T07:34:00;25.37;;;17.03;;
15938;SDS011;8068;51.322;9.450;2023-09-12T07:36:27;64.60;;;42.63;;
15938;SDS011;8068;51.322;9.450;2023-09-12T07:38:54;30.80;;;17.30;;
15938;SDS011;8068;51.322;9.450;2023-09-12T07:41:21;26.27;;;15.13;;
15938;SDS011;8068;51.322;9.450;2023-09-12T07:43:48;24.20;;;15.93;;
15938;SDS011;8068;51.322;9.450;2023-09-12T07:46:15;24.23;;;15.83;;
15938;SDS011;8068;51.322;9.450;2023-09-12T07:48:42;23.63;;;14.43;;
15938;SDS011;8068;51.322;9.450;2023-09-12T07:51:12;27.23;;;15.70;;
15938;SDS011;8068;51.322;9.450;2023-09-12T07:53:41;19.63;;;14.93;;
15938;SDS011;8068;51.322;9.450;2023-09-12T07:56:08;18.07;;;14.60;;
15938;SDS011;8068;51.322;9.450;2023-09-12T07:58:36;22.70;;;13.70;;
15938;SDS011;8068;51.322;9.450;2023-09-12T08:01:07;21.63;;;13.80;;
15938;SDS011;8068;51.322;9.450;2023-09-12T08:03:34;20.10;;;12.80;;
15938;SDS011;8068;51.322;9.450;2023-09-12T08:06:03;24.37;;;16.13;;
15938;SDS011;8068;51.322;9.450;2023-09-12T08:08:30;22.80;;;13.43;;
15938;SDS011;8068;51.322;9.450;2023-09-12T08:10:57;18.97;;;13.27;;
15938;SDS011;8068;51.322;9.450;2023-09-12T08:13:27;29.97;;;12.73;;
15938;SDS011;8068;51.322;9.450;2023-09-12T08:15:55;15.67;;;12.20;;
15938;SDS011;8068;51.322;9.450;2023-09-12T08:18:26;21.03;;;11.90;;
15938;SDS011;8068;51.322;9.450;2023-09-12T08:20:54;17.10;;;11.70;;
15938;SDS011;8068;51.322;9.450;2023-09-12T08:23:21;20.63;;;12.47;;
15938;SDS011;8068;51.322;9.450;2023-09-12T08:25:48;19.83;;;12.03;;
15938;SDS011;8068;51.322;9.450;2023-09-12T08:28:16;17.97;;;11.10;;
15938;SDS011;8068;51.322;9.450;2023-09-12T08:30:43;21.97;;;10.27;;
15938;SDS011;8068;51.322;9.450;2023-09-12T08:33:12;19.40;;;10.97;;
15938;SDS011;8068;51.322;9.450;2023-09-12T08:35:39;21.57;;;11.20;;
15938;SDS011;8068;51.322;9.450;2023-09-12T08:38:06;12.87;;;9.90;;
15938;SDS011;8068;51.322;9.450;2023-09-12T08:40:33;14.53;;;10.40;;
15938;SDS011;8068;51.322;9.450;2023-09-12T08:43:01;18.50;;;9.97;;
15938;SDS011;8068;51.322;9.450;2023-09-12T08:45:31;14.10;;;8.03;;
15938;SDS011;8068;51.322;9.450;2023-09-12T08:47:59;8.87;;;6.60;;
15938;SDS011;8068;51.322;9.450;2023-09-12T08:50:29;10.53;;;7.00;;
15938;SDS011;8068;51.322;9.450;2023-09-12T08:52:59;9.00;;;6.37;;
15938;SDS011;8068;51.322;9.450;2023-09-12T08:55:35;10.60;;;6.43;;
15938;SDS011;8068;51.322;9.450;2023-09-12T08:58:03;10.70;;;6.40;;
15938;SDS011;8068;51.322;9.450;2023-09-12T09:00:31;10.00;;;6.70;;
15938;SDS011;8068;51.322;9.450;2023-09-12T09:02:58;15.17;;;11.00;;
15938;SDS011;8068;51.322;9.450;2023-09-12T09:05:27;8.30;;;7.07;;
15938;SDS011;8068;51.322;9.450;2023-09-12T09:07:55;7.10;;;6.30;;
15938;SDS011;8068;51.322;9.450;2023-09-12T09:10:23;6.97;;;6.37;;
15938;SDS011;8068;51.322;9.450;2023-09-12T09:13:12;10.63;;;6.47;;
15938;SDS011;8068;51.322;9.450;2023-09-12T09:15:39;9.67;;;6.10;;
15938;SDS011;8068;51.322;9.450;2023-09-12T09:18:09;8.37;;;5.60;;
15938;SDS011;8068;51.322;9.450;2023-09-12T09:20:39;6.50;;;6.00;;
15938;SDS011;8068;51.322;9.450;2023-09-12T09:23:08;8.10;;;5.80;;
15938;SDS011;8068;51.322;9.450;2023-09-12T09:25:40;9.47;;;6.43;;
15938;SDS011;8068;51.322;9.450;2023-09-12T09:28:18;8.10;;;7.20;;
15938;SDS011;8068;51.322;9.450;2023-09-12T09:30:47;10.77;;;6.43;;
15938;SDS011;8068;51.322;9.450;2023-09-12T09:33:15;6.63;;;6.03;;
15938;SDS011;8068;51.322;9.450;2023-09-12T09:35:43;8.40;;;6.27;;
15938;SDS011;8068;51.322;9.450;2023-09-12T09:38:12;8.77;;;6.30;;
15938;SDS011;8068;51.322;9.450;2023-09-12T09:40:43;7.47;;;6.60;;
15938;SDS011;8068;51.322;9.450;2023-09-12T09:43:11;15.63;;;6.87;;
15938;SDS011;8068;51.322;9.450;2023-09-12T09:45:44;24.40;;;6.50;;
15938;SDS011;8068;51.322;9.450;2023-09-12T09:48:19;8.37;;;6.10;;
15938;SDS011;8068;51.322;9.450;2023-09-12T09:50:47;10.60;;;6.10;;
15938;SDS011;8068;51.322;9.450;2023-09-12T09:53:14;10.70;;;6.43;;
15938;SDS011;8068;51.322;9.450;2023-09-12T09:55:41;8.17;;;6.80;;
15938;SDS011;8068;51.322;9.450;2023-09-12T09:58:14;7.07;;;6.37;;
15938;SDS011;8068;51.322;9.450;2023-09-12T10:00:45;10.70;;;6.40;;
15938;SDS011;8068;51.322;9.450;2023-09-12T10:03:15;11.00;;;9.10;;
15938;SDS011;8068;51.322;9.450;2023-09-12T10:05:46;9.50;;;6.13;;
15938;SDS011;8068;51.322;9.450;2023-09-12T10:08:15;15.50;;;6.47;;
15938;SDS011;8068;51.322;9.450;2023-09-12T10:10:43;13.53;;;6.10;;
15938;SDS011;8068;51.322;9.450;2023-09-12T10:13:11;10.33;;;6.70;;
15938;SDS011;8068;51.322;9.450;2023-09-12T10:15:38;8.80;;;6.10;;
15938;SDS011;8068;51.322;9.450;2023-09-12T10:18:08;11.70;;;6.93;;
15938;SDS011;8068;51.322;9.450;2023-09-12T10:20:45;6.20;;;5.60;;
15938;SDS011;8068;51.322;9.450;2023-09-12T10:23:19;10.00;;;7.10;;
15938;SDS011;8068;51.322;9.450;2023-09-12T10:25:47;9.80;;;6.23;;
15938;SDS011;8068;51.322;9.450;2023-09-12T10:28:15;9.50;;;6.33;;
15938;SDS011;8068;51.322;9.450;2023-09-12T10:30:43;11.40;;;5.80;;
15938;SDS011;8068;51.322;9.450;2023-09-12T10:33:11;13.47;;;5.43;;
15938;SDS011;8068;51.322;9.450;2023-09-12T10:35:40;11.83;;;6.13;;
15938;SDS011;8068;51.322;9.450;2023-09-12T10:38:07;6.83;;;6.17;;
15938;SDS011;8068;51.322;9.450;2023-09-12T10:40:36;8.70;;;5.33;;
15938;SDS011;8068;51.322;9.450;2023-09-12T10:43:09;12.80;;;5.80;;
15938;SDS011;8068;51.322;9.450;2023-09-12T10:45:37;7.87;;;5.93;;
15938;SDS011;8068;51.322;9.450;2023-09-12T10:48:04;8.53;;;5.37;;
15938;SDS011;8068;51.322;9.450;2023-09-12T10:50:31;11.20;;;5.70;;
15938;SDS011;8068;51.322;9.450;2023-09-12T10:53:11;14.70;;;5.67;;
15938;SDS011;8068;51.322;9.450;2023-09-12T10:55:38;6.60;;;5.00;;
15938;SDS011;8068;51.322;9.450;2023-09-12T10:58:07;12.83;;;5.53;;
15938;SDS011;8068;51.322;9.450;2023-09-12T11:00:34;17.83;;;5.73;;
15938;SDS011;8068;51.322;9.450;2023-09-12T11:05:56;6.40;;;5.47;;
15938;SDS011;8068;51.322;9.450;2023-09-12T11:08:23;8.83;;;5.43;;
15938;SDS011;8068;51.322;9.450;2023-09-12T11:14:02;14.20;;;5.40;;
15938;SDS011;8068;51.322;9.450;2023-09-12T11:16:32;10.60;;;5.53;;
15938;SDS011;8068;51.322;9.450;2023-09-12T11:19:19;6.83;;;5.67;;
15938;SDS011;8068;51.322;9.450;2023-09-12T11:21:46;16.77;;;5.57;;
15938;SDS011;8068;51.322;9.450;2023-09-12T11:24:17;9.00;;;5.77;;
15938;SDS011;8068;51.322;9.450;2023-09-12T11:26:52;8.40;;;5.90;;
15938;SDS011;8068;51.322;9.450;2023-09-12T11:29:29;6.43;;;5.70;;
15938;SDS011;8068;51.322;9.450;2023-09-12T11:31:59;5.63;;;5.23;;
15938;SDS011;8068;51.322;9.450;2023-09-12T11:34:27;12.13;;;6.43;;
15938;SDS011;8068;51.322;9.450;2023-09-12T11:36:55;8.10;;;5.60;;
15938;SDS011;8068;51.322;9.450;2023-09-12T11:39:23;9.43;;;6.17;;
15938;SDS011;8068;51.322;9.450;2023-09-12T11:42:02;5.40;;;5.00;;
15938;SDS011;8068;51.322;9.450;2023-09-12T11:44:30;11.77;;;5.73;;
15938;SDS011;8068;51.322;9.450;2023-09-12T11:47:01;6.50;;;6.00;;
15938;SDS011;8068;51.322;9.450;2023-09-12T11:49:36;6.20;;;5.60;;
15938;SDS011;8068;51.322;9.450;2023-09-12T11:52:07;5.90;;;5.50;;
15938;SDS011;8068;51.322;9.450;2023-09-12T11:54:43;6.03;;;5.07;;
15938;SDS011;8068;51.322;9.450;2023-09-12T11:57:14;6.10;;;5.50;;
15938;SDS011;8068;51.322;9.450;2023-09-12T11:59:42;8.20;;;4.87;;
15938;SDS011;8068;51.322;9.450;2023-09-12T12:02:11;5.60;;;5.10;;
15938;SDS011;8068;51.322;9.450;2023-09-12T12:04:38;8.73;;;5.60;;
15938;SDS011;8068;51.322;9.450;2023-09-12T12:07:06;6.23;;;5.20;;
15938;SDS011;8068;51.322;9.450;2023-09-12T12:09:33;6.20;;;5.40;;
15938;SDS011;8068;51.322;9.450;2023-09-12T12:12:19;16.40;;;5.10;;
15938;SDS011;8068;51.322;9.450;2023-09-12T12:14:46;5.57;;;4.70;;
15938;SDS011;8068;51.322;9.450;2023-09-12T12:17:13;5.40;;;5.00;;
15938;SDS011;8068;51.322;9.450;2023-09-12T12:19:40;5.17;;;4.87;;
15938;SDS011;8068;51.322;9.450;2023-09-12T12:22:11;5.37;;;4.83;;
15938;SDS011;8068;51.322;9.450;2023-09-12T12:24:39;10.00;;;5.20;;
15938;SDS011;8068;51.322;9.450;2023-09-12T12:27:08;9.47;;;5.70;;
15938;SDS011;8068;51.322;9.450;2023-09-12T12:29:37;5.73;;;5.13;;
15938;SDS011;8068;51.322;9.450;2023-09-12T12:32:06;9.10;;;5.83;;
15938;SDS011;8068;51.322;9.450;2023-09-12T12:34:35;12.67;;;6.27;;
15938;SDS011;8068;51.322;9.450;2023-09-12T12:37:27;9.77;;;5.53;;
15938;SDS011;8068;51.322;9.450;2023-09-12T12:39:57;18.53;;;6.00;;
15938;SDS011;8068;51.322;9.450;2023-09-12T12:42:28;12.10;;;5.73;;
15938;SDS011;8068;51.322;9.450;2023-09-12T12:45:21;19.13;;;6.27;;
15938;SDS011;8068;51.322;9.450;2023-09-12T12:48:00;18.73;;;5.93;;
15938;SDS011;8068;51.322;9.450;2023-09-12T12:50:27;16.77;;;6.03;;
15938;SDS011;8068;51.322;9.450;2023-09-12T12:52:54;13.10;;;5.73;;
15938;SDS011;8068;51.322;9.450;2023-09-12T12:55:21;11.67;;;5.80;;
15938;SDS011;8068;51.322;9.450;2023-09-12T12:57:48;12.53;;;6.23;;
15938;SDS011;8068;51.322;9.450;2023-09-12T13:00:16;15.17;;;6.37;;
15938;SDS011;8068;51.322;9.450;2023-09-12T13:02:44;12.97;;;6.07;;
15938;SDS011;8068;51.322;9.450;2023-09-12T13:05:25;8.63;;;5.87;;
15938;SDS011;8068;51.322;9.450;2023-09-12T13:07:52;7.00;;;5.70;;
15938;SDS011;8068;51.322;9.450;2023-09-12T13:10:20;6.13;;;5.63;;
15938;SDS011;8068;51.322;9.450;2023-09-12T13:12:48;13.30;;;6.27;;
15938;SDS011;8068;51.322;9.450;2023-09-12T13:15:16;12.27;;;6.33;;
15938;SDS011;8068;51.322;9.450;2023-09-12T13:17:44;6.83;;;5.60;;
15938;SDS011;8068;51.322;9.450;2023-09-12T13:20:11;7.00;;;5.43;;
15938;SDS011;8068;51.322;9.450;2023-09-12T13:22:38;12.30;;;5.40;;
15938;SDS011;8068;51.322;9.450;2023-09-12T13:25:05;8.20;;;6.53;;
15938;SDS011;8068;51.322;9.450;2023-09-12T13:27:32;8.63;;;5.70;;
15938;SDS011;8068;51.322;9.450;2023-09-12T13:30:00;11.70;;;5.83;;
15938;SDS011;8068;51.322;9.450;2023-09-12T13:32:27;9.50;;;6.03;;
15938;SDS011;8068;51.322;9.450;2023-09-12T13:34:54;8.67;;;6.17;;
15938;SDS011;8068;51.322;9.450;2023-09-12T13:37:21;5.97;;;5.50;;
15938;SDS011;8068;51.322;9.450;2023-09-12T13:39:48;6.17;;;5.57;;
15938;SDS011;8068;51.322;9.450;2023-09-12T13:42:17;6.83;;;5.60;;
15938;SDS011;8068;51.322;9.450;2023-09-12T13:44:47;10.90;;;5.40;;
15938;SDS011;8068;51.322;9.450;2023-09-12T13:47:15;6.50;;;5.80;;
15938;SDS011;8068;51.322;9.450;2023-09-12T13:49:49;12.30;;;6.27;;
15938;SDS011;8068;51.322;9.450;2023-09-12T13:52:21;10.17;;;5.10;;
15938;SDS011;8068;51.322;9.450;2023-09-12T13:54:48;13.60;;;5.60;;
15938;SDS011;8068;51.322;9.450;2023-09-12T13:57:16;15.57;;;5.60;;
15938;SDS011;8068;51.322;9.450;2023-09-12T13:59:43;5.67;;;5.20;;
15938;SDS011;8068;51.322;9.450;2023-09-12T14:02:12;5.63;;;5.13;;
15938;SDS011;8068;51.322;9.450;2023-09-12T14:04:40;9.80;;;5.30;;
15938;SDS011;8068;51.322;9.450;2023-09-12T14:07:08;9.90;;;5.17;;
15938;SDS011;8068;51.322;9.450;2023-09-12T14:09:36;7.07;;;5.63;;
15938;SDS011;8068;51.322;9.450;2023-09-12T14:12:04;9.93;;;5.30;;
15938;SDS011;8068;51.322;9.450;2023-09-12T14:14:44;7.17;;;5.50;;
15938;SDS011;8068;51.322;9.450;2023-09-12T14:17:29;9.07;;;6.30;;
15938;SDS011;8068;51.322;9.450;2023-09-12T14:19:57;14.63;;;6.10;;
15938;SDS011;8068;51.322;9.450;2023-09-12T14:22:24;6.40;;;5.03;;
15938;SDS011;8068;51.322;9.450;2023-09-12T14:24:51;6.73;;;4.73;;
15938;SDS011;8068;51.322;9.450;2023-09-12T14:27:18;5.80;;;5.40;;
15938;SDS011;8068;51.322;9.450;2023-09-12T14:29:52;10.57;;;5.40;;
15938;SDS011;8068;51.322;9.450;2023-09-12T14:32:19;6.70;;;5.00;;
15938;SDS011;8068;51.322;9.450;2023-09-12T14:34:47;5.40;;;4.90;;
15938;SDS011;8068;51.322;9.450;2023-09-12T14:37:13;7.20;;;5.60;;
15938;SDS011;8068;51.322;9.450;2023-09-12T14:39:40;5.00;;;4.60;;
15938;SDS011;8068;51.322;9.450;2023-09-12T14:42:07;5.10;;;4.70;;
15938;SDS011;8068;51.322;9.450;2023-09-12T14:44:38;9.17;;;5.00;;
15938;SDS011;8068;51.322;9.450;2023-09-12T14:47:05;6.10;;;5.30;;
15938;SDS011;8068;51.322;9.450;2023-09-12T14:49:32;8.97;;;5.00;;
15938;SDS011;8068;51.322;9.450;2023-09-12T14:52:12;6.13;;;4.70;;
15938;SDS011;8068;51.322;9.450;2023-09-12T14:54:49;8.50;;;5.33;;
15938;SDS011;8068;51.322;9.450;2023-09-12T14:57:16;6.40;;;4.80;;
15938;SDS011;8068;51.322;9.450;2023-09-12T14:59:43;10.60;;;5.77;;
15938;SDS011;8068;51.322;9.450;2023-09-12T15:02:09;7.57;;;5.30;;
15938;SDS011;8068;51.322;9.450;2023-09-12T15:04:37;7.60;;;5.10;;
15938;SDS011;8068;51.322;9.450;2023-09-12T15:07:03;9.13;;;8.20;;
15938;SDS011;8068;51.322;9.450;2023-09-12T15:09:31;7.60;;;5.10;;
15938;SDS011;8068;51.322;9.450;2023-09-12T15:11:58;9.07;;;5.40;;